createdAt,value
2022-08-02T00:01:15.382Z,18.00
2022-08-02T00:04:05.216Z,18.00
2022-08-02T00:06:53.444Z,17.90
2022-08-02T00:09:41.681Z,17.90
2022-08-02T00:12:30.020Z,17.80
2022-08-02T00:15:18.250Z,17.80
2022-08-02T00:18:06.506Z,17.80
2022-08-02T00:20:56.052Z,17.70
2022-08-02T00:24:29.383Z,17.70
2022-08-02T00:26:52.460Z,17.70
2022-08-02T00:29:51.960Z,17.70
2022-08-02T00:32:40.859Z,17.70
2022-08-02T00:35:29.073Z,17.80
2022-08-02T00:38:18.741Z,17.70
2022-08-02T00:41:13.658Z,17.60
2022-08-02T00:44:01.806Z,17.60
2022-08-02T00:46:50.293Z,17.50
2022-08-02T00:49:39.006Z,17.40
2022-08-02T00:52:27.223Z,17.30
2022-08-02T00:55:17.468Z,17.20
2022-08-02T00:58:11.569Z,17.30
2022-08-02T01:01:02.025Z,17.20
2022-08-02T01:03:50.395Z,17.30
2022-08-02T01:06:40.154Z,17.30
2022-08-02T01:09:28.399Z,17.20
2022-08-02T01:12:17.985Z,17.10
2022-08-02T01:15:09.806Z,17.00
2022-08-02T01:18:03.836Z,16.90
2022-08-02T01:21:32.653Z,16.90
2022-08-02T01:24:42.021Z,16.90
2022-08-02T01:27:40.963Z,16.90
2022-08-02T01:30:33.095Z,16.90
2022-08-02T01:33:24.158Z,16.90
2022-08-02T01:36:16.147Z,17.00
2022-08-02T01:39:06.312Z,17.00
2022-08-02T01:41:58.953Z,17.00
2022-08-02T01:44:47.995Z,17.00
2022-08-02T01:47:41.434Z,17.10
2022-08-02T01:50:33.630Z,17.10
2022-08-02T01:53:22.702Z,17.10
2022-08-02T01:56:12.646Z,17.10
2022-08-02T01:59:01.043Z,17.10
2022-08-02T02:01:52.079Z,17.00
2022-08-02T02:04:43.320Z,17.00
2022-08-02T02:07:34.627Z,16.90
2022-08-02T02:10:27.676Z,16.90
2022-08-02T02:13:20.032Z,16.80
2022-08-02T02:16:09.091Z,16.70
2022-08-02T02:18:58.185Z,16.60
2022-08-02T02:21:47.755Z,16.60
2022-08-02T02:24:36.788Z,16.50
2022-08-02T02:27:25.796Z,16.50
2022-08-02T02:30:14.707Z,16.40
2022-08-02T02:33:06.353Z,16.40
2022-08-02T02:35:55.085Z,16.40
2022-08-02T02:38:46.367Z,16.30
2022-08-02T02:41:34.909Z,16.30
2022-08-02T02:44:24.575Z,16.30
2022-08-02T02:47:15.356Z,16.20
2022-08-02T02:50:03.905Z,16.20
2022-08-02T02:52:53.374Z,16.20
2022-08-02T02:56:02.038Z,16.10
2022-08-02T02:58:52.773Z,16.10
2022-08-02T03:01:56.658Z,16.00
2022-08-02T03:04:56.105Z,15.90
2022-08-02T03:07:46.059Z,15.80
2022-08-02T03:10:35.566Z,15.80
2022-08-02T03:13:25.347Z,15.70
2022-08-02T03:16:21.558Z,15.70
2022-08-02T03:19:09.759Z,15.70
2022-08-02T03:21:57.941Z,15.60
2022-08-02T03:24:46.155Z,15.50
2022-08-02T03:27:34.371Z,15.40
2022-08-02T03:30:27.607Z,15.40
2022-08-02T03:33:15.949Z,15.40
2022-08-02T03:36:09.466Z,15.30
2022-08-02T03:38:58.974Z,15.20
2022-08-02T03:41:47.950Z,15.10
2022-08-02T03:44:39.441Z,15.10
2022-08-02T03:47:30.416Z,15.00
2022-08-02T03:50:19.550Z,14.90
2022-08-02T03:53:09.015Z,14.90
2022-08-02T03:56:08.411Z,14.80
2022-08-02T03:59:07.887Z,14.70
2022-08-02T04:01:56.073Z,14.80
2022-08-02T04:04:45.556Z,14.80
2022-08-02T04:08:03.573Z,14.80
2022-08-02T04:10:59.312Z,14.90
2022-08-02T04:13:47.544Z,15.00
2022-08-02T04:16:43.430Z,15.00
2022-08-02T04:19:37.431Z,14.90
2022-08-02T04:22:31.238Z,14.90
2022-08-02T04:25:34.294Z,14.90
2022-08-02T04:28:28.335Z,15.00
2022-08-02T04:31:19.538Z,15.00
2022-08-02T04:34:07.873Z,15.10
2022-08-02T04:36:56.557Z,15.10
2022-08-02T04:39:46.133Z,15.20
2022-08-02T04:42:34.329Z,15.20
2022-08-02T04:45:23.376Z,15.30
2022-08-02T04:48:11.907Z,15.30
2022-08-02T04:51:00.334Z,15.40
2022-08-02T04:53:48.505Z,15.50
2022-08-02T04:56:39.377Z,15.60
2022-08-02T04:59:27.913Z,15.70
2022-08-02T05:02:16.076Z,15.80
2022-08-02T05:05:08.336Z,15.90
2022-08-02T05:07:58.755Z,16.00
2022-08-02T05:10:46.966Z,16.00
2022-08-02T05:13:36.468Z,16.10
2022-08-02T05:16:44.652Z,16.20
2022-08-02T05:19:32.795Z,16.30
2022-08-02T05:22:20.998Z,16.40
2022-08-02T05:25:10.378Z,16.50
2022-08-02T05:27:58.549Z,16.60
2022-08-02T05:30:48.052Z,16.70
2022-08-02T05:33:37.810Z,16.70
2022-08-02T05:36:25.993Z,16.80
2022-08-02T05:39:19.181Z,16.90
2022-08-02T05:42:08.265Z,17.00
2022-08-02T05:44:56.494Z,17.00
2022-08-02T05:47:46.062Z,17.00
2022-08-02T05:50:38.815Z,17.10
2022-08-02T05:53:37.147Z,17.00
2022-08-02T05:56:30.102Z,17.10
2022-08-02T05:59:27.406Z,17.10
2022-08-02T06:02:30.511Z,17.10
2022-08-02T06:05:22.714Z,17.20
2022-08-02T06:08:14.262Z,17.20
2022-08-02T06:11:03.586Z,17.20
2022-08-02T06:13:54.288Z,17.20
2022-08-02T06:16:44.588Z,17.20
2022-08-02T06:19:36.565Z,17.30
2022-08-02T06:22:44.830Z,17.40
2022-08-02T06:25:48.429Z,17.50
2022-08-02T06:28:40.420Z,17.60
2022-08-02T06:31:28.627Z,17.60
2022-08-02T06:34:16.832Z,17.70
2022-08-02T06:37:14.830Z,17.70
2022-08-02T06:40:12.966Z,17.80
2022-08-02T06:43:11.715Z,17.90
2022-08-02T06:46:57.208Z,18.00
2022-08-02T06:49:08.236Z,18.00
2022-08-02T06:51:56.541Z,18.10
2022-08-02T06:54:44.743Z,18.10
2022-08-02T06:57:35.053Z,18.20
2022-08-02T07:00:23.294Z,18.30
2022-08-02T07:03:11.686Z,18.40
2022-08-02T07:05:59.921Z,18.50
2022-08-02T07:09:11.264Z,18.60
2022-08-02T07:11:57.646Z,18.60
2022-08-02T07:14:47.178Z,18.70
2022-08-02T07:17:36.213Z,18.80
2022-08-02T07:20:24.447Z,18.90
2022-08-02T07:23:12.672Z,19.00
2022-08-02T07:26:03.330Z,19.00
2022-08-02T07:28:52.562Z,19.10
2022-08-02T07:31:42.092Z,19.20
2022-08-02T07:34:30.275Z,19.30
2022-08-02T07:37:35.278Z,19.40
2022-08-02T07:40:28.335Z,19.50
2022-08-02T07:43:16.991Z,19.50
2022-08-02T07:48:47.868Z,19.70
2022-08-02T07:51:37.025Z,19.80
2022-08-02T07:54:25.956Z,19.90
2022-08-02T07:57:14.292Z,20.00
2022-08-02T08:00:02.705Z,20.10
2022-08-02T08:02:51.016Z,20.20
2022-08-02T08:05:41.186Z,20.30
2022-08-02T08:08:29.485Z,20.40
2022-08-02T08:11:45.235Z,20.50
2022-08-02T08:14:34.295Z,20.60
2022-08-02T08:17:22.642Z,20.70
2022-08-02T08:20:15.663Z,20.80
2022-08-02T08:23:05.988Z,20.80
2022-08-02T08:25:54.270Z,20.90
2022-08-02T08:28:42.608Z,21.10
2022-08-02T08:31:30.916Z,21.10
2022-08-02T08:34:19.285Z,21.20
2022-08-02T08:37:07.574Z,21.30
2022-08-02T08:39:58.981Z,21.40
2022-08-02T08:42:47.420Z,21.50
2022-08-02T08:45:36.000Z,21.60
2022-08-02T08:48:30.825Z,21.70
2022-08-02T08:51:23.332Z,21.80
2022-08-02T08:54:33.116Z,21.90
2022-08-02T08:57:22.889Z,22.00
2022-08-02T09:00:14.014Z,22.00
2022-08-02T09:03:04.206Z,22.00
2022-08-02T09:05:52.651Z,22.20
2022-08-02T09:08:40.983Z,22.20
2022-08-02T09:11:29.403Z,22.30
2022-08-02T09:14:29.709Z,22.50
2022-08-02T09:17:18.806Z,22.70
2022-08-02T09:20:13.375Z,22.80
2022-08-02T09:23:12.654Z,22.80
2022-08-02T09:26:07.468Z,22.90
2022-08-02T09:29:09.360Z,22.90
2022-08-02T09:32:07.368Z,22.90
2022-08-02T09:34:55.938Z,23.10
2022-08-02T09:37:48.384Z,23.30
2022-08-02T09:40:37.745Z,23.50
2022-08-02T09:43:52.399Z,23.60
2022-08-02T09:46:52.501Z,23.70
2022-08-02T09:49:52.476Z,23.80
2022-08-02T09:52:44.628Z,24.00
2022-08-02T09:55:33.372Z,24.10
2022-08-02T09:58:22.677Z,24.10
2022-08-02T10:01:11.590Z,24.30
2022-08-02T10:04:52.584Z,24.40
2022-08-02T10:07:43.932Z,24.50
2022-08-02T10:10:32.384Z,24.60
2022-08-02T10:13:21.933Z,24.70
2022-08-02T10:16:15.950Z,24.90
2022-08-02T10:19:06.209Z,24.90
2022-08-02T10:21:58.416Z,25.00
2022-08-02T10:24:48.865Z,25.20
2022-08-02T10:28:03.684Z,25.30
2022-08-02T10:30:49.846Z,25.40
2022-08-02T10:33:40.219Z,25.40
2022-08-02T10:36:46.070Z,25.40
2022-08-02T10:39:40.839Z,25.40
2022-08-02T10:43:00.931Z,25.60
2022-08-02T10:45:52.438Z,25.70
2022-08-02T10:49:37.489Z,25.80
2022-08-02T10:52:17.818Z,25.80
2022-08-02T10:55:14.676Z,26.00
2022-08-02T10:58:19.368Z,26.10
2022-08-02T11:01:38.871Z,26.40
2022-08-02T11:04:30.778Z,26.50
2022-08-02T11:07:20.641Z,26.70
2022-08-02T11:10:38.420Z,26.90
2022-08-02T11:13:30.169Z,27.10
2022-08-02T11:16:18.501Z,27.20
2022-08-02T11:19:07.190Z,27.40
2022-08-02T11:22:02.334Z,27.40
2022-08-02T11:24:51.162Z,27.60
2022-08-02T11:27:45.163Z,27.60
2022-08-02T11:31:02.612Z,27.70
2022-08-02T11:33:52.477Z,27.90
2022-08-02T11:40:19.500Z,28.10
2022-08-02T11:43:21.332Z,28.20
2022-08-02T11:46:17.082Z,28.40
2022-08-02T11:49:17.075Z,28.40
2022-08-02T11:52:45.945Z,28.50
2022-08-02T11:55:34.319Z,28.60
2022-08-02T11:58:48.442Z,28.70
2022-08-02T12:01:55.932Z,28.90
2022-08-02T12:04:44.550Z,29.00
2022-08-02T12:07:36.186Z,29.10
2022-08-02T12:10:25.801Z,29.20
2022-08-02T12:13:14.250Z,29.40
2022-08-02T12:16:25.937Z,29.40
2022-08-02T12:19:23.361Z,29.50
2022-08-02T12:22:15.559Z,29.70
2022-08-02T12:25:34.189Z,29.70
2022-08-02T12:28:26.758Z,29.90
2022-08-02T12:31:15.151Z,30.00
2022-08-02T12:34:15.175Z,30.00
2022-08-02T12:37:06.191Z,30.10
2022-08-02T12:39:54.540Z,30.20
2022-08-02T12:42:47.585Z,30.30
2022-08-02T12:45:49.009Z,30.30
2022-08-02T12:48:52.310Z,30.50
2022-08-02T12:51:55.615Z,30.80
2022-08-02T12:54:49.980Z,31.00
2022-08-02T12:57:52.680Z,31.10
2022-08-02T13:00:41.819Z,31.20
2022-08-02T13:04:09.554Z,31.40
2022-08-02T13:06:45.905Z,31.40
2022-08-02T13:09:37.775Z,31.40
2022-08-02T13:12:27.430Z,31.40
2022-08-02T13:15:48.990Z,31.40
2022-08-02T13:18:24.610Z,31.40
2022-08-02T13:21:31.857Z,31.40
2022-08-02T13:24:40.991Z,31.60
2022-08-02T13:27:38.061Z,31.70
2022-08-02T13:30:26.391Z,32.00
2022-08-02T13:33:14.809Z,32.40
2022-08-02T13:36:03.085Z,32.60
2022-08-02T13:38:57.434Z,32.90
2022-08-02T13:41:45.738Z,32.90
2022-08-02T13:44:35.621Z,32.90
2022-08-02T13:47:35.812Z,32.90
2022-08-02T13:50:25.477Z,32.80
2022-08-02T13:53:15.770Z,32.80
2022-08-02T13:56:04.280Z,32.70
2022-08-02T13:58:52.607Z,32.70
2022-08-02T14:01:42.315Z,32.70
2022-08-02T14:04:30.879Z,32.80
2022-08-02T14:07:19.177Z,33.00
2022-08-02T14:10:08.735Z,33.00
2022-08-02T14:12:57.012Z,33.20
2022-08-02T14:15:45.436Z,33.50
2022-08-02T14:18:35.107Z,33.60
2022-08-02T14:21:23.381Z,33.90
2022-08-02T14:24:11.707Z,34.30
2022-08-02T14:26:59.924Z,34.60
2022-08-02T14:29:51.345Z,34.30
2022-08-02T14:32:39.668Z,34.40
2022-08-02T14:35:29.398Z,34.40
2022-08-02T14:38:19.278Z,34.30
2022-08-02T14:41:07.510Z,34.10
2022-08-02T14:44:08.292Z,33.70
2022-08-02T14:46:57.114Z,33.60
2022-08-02T14:49:50.069Z,33.60
2022-08-02T14:52:40.248Z,33.90
2022-08-02T14:55:28.490Z,34.20
2022-08-02T14:58:16.841Z,34.70
2022-08-02T15:01:05.272Z,34.80
2022-08-02T15:03:53.692Z,35.20
2022-08-02T15:06:42.021Z,35.40
2022-08-02T15:09:31.635Z,35.60
2022-08-02T15:12:19.899Z,35.50
2022-08-02T15:15:09.149Z,35.40
2022-08-02T15:17:57.466Z,35.30
2022-08-02T15:20:57.149Z,35.50
2022-08-02T15:23:46.309Z,35.60
2022-08-02T15:26:36.010Z,35.60
2022-08-02T15:29:24.394Z,35.40
2022-08-02T15:32:13.474Z,35.20
2022-08-02T15:35:02.061Z,34.80
2022-08-02T15:37:50.383Z,34.40
2022-08-02T15:40:38.640Z,34.10
2022-08-02T15:43:28.482Z,33.60
2022-08-02T15:46:16.803Z,33.10
2022-08-02T15:49:05.279Z,32.90
2022-08-02T15:51:54.014Z,32.50
2022-08-02T15:54:42.377Z,32.10
2022-08-02T15:57:30.785Z,31.70
2022-08-02T16:00:25.969Z,31.40
2022-08-02T16:03:14.403Z,31.10
2022-08-02T16:06:05.182Z,30.90
2022-08-02T16:08:54.939Z,30.80
2022-08-02T16:11:43.269Z,31.10
2022-08-02T16:14:31.597Z,31.90
2022-08-02T16:17:48.499Z,32.90
2022-08-02T16:20:29.506Z,33.80
2022-08-02T16:23:17.781Z,34.80
2022-08-02T16:26:06.110Z,35.80
2022-08-02T16:28:54.741Z,36.30
2022-08-02T16:31:43.251Z,36.70
2022-08-02T16:34:45.155Z,37.00
2022-08-02T16:37:50.425Z,36.80
2022-08-02T16:40:40.698Z,36.80
2022-08-02T16:43:29.100Z,36.70
2022-08-02T16:46:19.046Z,37.00
2022-08-02T16:50:05.724Z,37.40
2022-08-02T16:52:19.082Z,37.60
2022-08-02T16:55:10.902Z,37.50
2022-08-02T16:58:01.123Z,37.60
2022-08-02T17:00:49.742Z,37.80
2022-08-02T17:03:56.599Z,37.80
2022-08-02T17:06:47.884Z,37.50
2022-08-02T17:10:01.807Z,37.60
2022-08-02T17:12:51.458Z,37.40
2022-08-02T17:16:01.694Z,37.20
2022-08-02T17:18:49.287Z,36.50
2022-08-02T17:21:37.790Z,36.10
2022-08-02T17:24:26.129Z,36.00
2022-08-02T17:27:17.197Z,36.10
2022-08-02T17:30:10.897Z,36.10
2022-08-02T17:33:00.646Z,35.70
2022-08-02T17:35:53.034Z,35.40
2022-08-02T17:38:51.691Z,34.90
2022-08-02T17:41:49.456Z,34.40
2022-08-02T17:44:41.469Z,34.30
2022-08-02T17:47:33.572Z,34.30
2022-08-02T17:50:30.944Z,33.90
2022-08-02T17:53:20.142Z,33.60
2022-08-02T17:56:08.586Z,33.20
2022-08-02T17:58:56.976Z,32.80
2022-08-02T18:01:52.524Z,32.50
2022-08-02T18:04:41.714Z,32.10
2022-08-02T18:10:42.786Z,31.40
2022-08-02T18:13:32.923Z,31.00
2022-08-02T18:16:21.717Z,30.70
2022-08-02T18:19:17.007Z,30.40
2022-08-02T18:22:05.735Z,30.10
2022-08-02T18:24:54.171Z,29.80
2022-08-02T18:27:42.785Z,29.70
2022-08-02T18:30:31.514Z,29.50
2022-08-02T18:33:58.785Z,29.30
2022-08-02T18:36:32.337Z,29.10
2022-08-02T18:39:20.574Z,28.90
2022-08-02T18:42:10.924Z,28.70
2022-08-02T18:45:07.270Z,28.60
2022-08-02T18:47:55.571Z,28.40
2022-08-02T18:50:46.898Z,28.10
2022-08-02T18:53:41.545Z,27.90
2022-08-02T18:56:32.610Z,27.70
2022-08-02T18:59:21.091Z,27.50
2022-08-02T19:02:09.411Z,27.30
2022-08-02T19:04:57.671Z,27.20
2022-08-02T19:07:51.233Z,27.00
2022-08-02T19:10:49.101Z,26.80
2022-08-02T19:13:42.601Z,26.70
2022-08-02T19:16:37.798Z,26.50
2022-08-02T19:19:28.874Z,26.40
2022-08-02T19:22:20.032Z,26.20
2022-08-02T19:25:14.290Z,26.10
2022-08-02T19:28:08.323Z,26.00
2022-08-02T19:30:57.388Z,25.90
2022-08-02T19:34:05.804Z,25.70
2022-08-02T19:36:54.114Z,25.60
2022-08-02T19:39:42.604Z,25.50
2022-08-02T19:42:50.053Z,25.40
2022-08-02T19:45:50.294Z,25.20
2022-08-02T19:48:40.780Z,25.10
2022-08-02T19:51:54.683Z,25.00
2022-08-02T19:54:55.705Z,24.90
2022-08-02T19:57:45.062Z,24.70
2022-08-02T20:00:35.911Z,24.60
2022-08-02T20:03:39.853Z,24.50
2022-08-02T20:06:33.851Z,24.30
2022-08-02T20:09:33.582Z,24.20
2022-08-02T20:12:37.419Z,24.10
2022-08-02T20:15:55.919Z,24.00
2022-08-02T20:18:36.623Z,23.90
2022-08-02T20:21:36.041Z,23.80
2022-08-02T20:24:26.704Z,23.70
2022-08-02T20:27:21.787Z,23.60
2022-08-02T20:30:13.625Z,23.60
2022-08-02T20:33:21.669Z,23.50
2022-08-02T20:36:12.166Z,23.30
2022-08-02T20:39:01.296Z,23.20
2022-08-02T20:41:53.046Z,23.10
2022-08-02T20:44:46.920Z,22.90
2022-08-02T20:47:39.904Z,22.80
2022-08-02T20:50:46.105Z,22.70
2022-08-02T20:53:54.942Z,22.50
2022-08-02T20:56:44.643Z,22.30
2022-08-02T20:59:40.720Z,22.20
2022-08-02T21:02:31.119Z,22.10
2022-08-02T21:05:20.333Z,22.00
2022-08-02T21:08:15.539Z,22.00
2022-08-02T21:11:09.631Z,21.90
2022-08-02T21:14:06.613Z,21.80
2022-08-02T21:16:56.636Z,21.80
2022-08-02T21:19:45.021Z,21.80
2022-08-02T21:22:33.406Z,21.70
2022-08-02T21:25:21.747Z,21.70
2022-08-02T21:28:38.281Z,21.60
2022-08-02T21:31:35.477Z,21.70
2022-08-02T21:34:27.013Z,21.60
2022-08-02T21:37:16.662Z,21.60
2022-08-02T21:40:05.900Z,21.50
2022-08-02T21:42:57.713Z,21.40
2022-08-02T21:45:53.853Z,21.40
2022-08-02T21:48:44.564Z,21.40
2022-08-02T21:51:34.349Z,21.50
2022-08-02T21:54:23.739Z,21.40
2022-08-02T21:57:15.736Z,21.50
2022-08-02T22:00:12.638Z,21.40
2022-08-02T22:03:23.238Z,21.40
2022-08-02T22:06:10.600Z,21.40
2022-08-02T22:08:58.980Z,21.30
2022-08-02T22:11:47.290Z,21.30
2022-08-02T22:14:36.374Z,21.30
2022-08-02T22:17:51.963Z,21.30
2022-08-02T22:20:39.950Z,21.30
2022-08-02T22:23:38.927Z,21.30
2022-08-02T22:26:37.557Z,21.30
2022-08-02T22:29:26.248Z,21.20
2022-08-02T22:32:34.513Z,21.30
2022-08-02T22:35:22.009Z,21.30
2022-08-02T22:38:15.001Z,21.40
2022-08-02T22:41:06.059Z,21.40
2022-08-02T22:43:57.616Z,21.40
2022-08-02T22:46:45.938Z,21.50
2022-08-02T22:49:38.189Z,21.60
2022-08-02T22:52:42.615Z,21.70
2022-08-02T22:55:41.566Z,21.70
2022-08-02T22:58:30.562Z,21.70
2022-08-02T22:58:43.326Z,31.80
2022-08-02T23:01:19.933Z,21.80
2022-08-02T23:04:08.262Z,21.80
2022-08-02T23:06:56.503Z,21.80
2022-08-02T23:09:45.030Z,21.80
2022-08-02T23:12:34.701Z,21.80
2022-08-02T23:15:23.270Z,21.90
2022-08-02T23:18:29.335Z,21.90
2022-08-02T23:21:46.089Z,21.90
2022-08-02T23:24:27.097Z,21.90
2022-08-02T23:27:15.911Z,21.80
2022-08-02T23:30:06.917Z,21.80
2022-08-02T23:32:55.274Z,21.80
2022-08-02T23:35:43.970Z,21.80
2022-08-02T23:38:32.287Z,21.80
2022-08-02T23:41:20.628Z,21.90
2022-08-02T23:44:14.037Z,21.90
2022-08-02T23:47:04.551Z,21.90
2022-08-02T23:49:52.850Z,22.00
2022-08-02T23:52:41.172Z,22.10
2022-08-02T23:55:29.580Z,22.10
2022-08-02T23:58:18.917Z,22.10
